sensor_id;sensor_type;location;lat;lon;timestamp;temperature;humidity
16999;DHT22;10211;49.476;11.010;2022-12-15T00:01:30;-2.50;99.90
16999;DHT22;10211;49.476;11.010;2022-12-15T00:04:14;-2.50;99.90
16999;DHT22;10211;49.476;11.010;2022-12-15T00:06:58;-2.50;99.90
16999;DHT22;10211;49.476;11.010;2022-12-15T00:09:42;-2.50;99.90
16999;DHT22;10211;49.476;11.010;2022-12-15T00:12:28;-2.50;99.90
16999;DHT22;10211;49.476;11.010;2022-12-15T00:15:12;-2.50;99.90
16999;DHT22;10211;49.476;11.010;2022-12-15T00:17:56;-2.60;99.90
16999;DHT22;10211;49.476;11.010;2022-12-15T00:20:40;-2.60;99.90
16999;DHT22;10211;49.476;11.010;2022-12-15T00:23:24;-2.60;99.90
16999;DHT22;10211;49.476;11.010;2022-12-15T00:26:08;-2.60;99.90
16999;DHT22;10211;49.476;11.010;2022-12-15T00:28:55;-2.60;99.90
16999;DHT22;10211;49.476;11.010;2022-12-15T00:31:39;-2.60;99.90
16999;DHT22;10211;49.476;11.010;2022-12-15T00:34:23;-2.70;99.90
16999;DHT22;10211;49.476;11.010;2022-12-15T00:37:07;-2.70;99.90
16999;DHT22;10211;49.476;11.010;2022-12-15T00:39:52;-2.70;99.90
16999;DHT22;10211;49.476;11.010;2022-12-15T00:42:24;-2.60;99.90
16999;DHT22;10211;49.476;11.010;2022-12-15T00:44:54;-2.70;99.90
16999;DHT22;10211;49.476;11.010;2022-12-15T00:47:23;-2.70;99.90
16999;DHT22;10211;49.476;11.010;2022-12-15T00:49:49;-2.70;99.90
16999;DHT22;10211;49.476;11.010;2022-12-15T00:52:33;-2.70;99.90
16999;DHT22;10211;49.476;11.010;2022-12-15T00:55:18;-2.70;99.90
16999;DHT22;10211;49.476;11.010;2022-12-15T00:58:02;-2.70;99.90
16999;DHT22;10211;49.476;11.010;2022-12-15T01:00:47;-2.70;99.90
16999;DHT22;10211;49.476;11.010;2022-12-15T01:03:32;-2.70;99.90
16999;DHT22;10211;49.476;11.010;2022-12-15T01:06:18;-2.80;99.90
16999;DHT22;10211;49.476;11.010;2022-12-15T01:09:04;-2.80;99.90
16999;DHT22;10211;49.476;11.010;2022-12-15T01:11:49;-2.80;99.90
16999;DHT22;10211;49.476;11.010;2022-12-15T01:14:34;-2.80;99.90
16999;DHT22;10211;49.476;11.010;2022-12-15T01:17:20;-2.80;99.90
16999;DHT22;10211;49.476;11.010;2022-12-15T01:20:06;-2.90;99.90
16999;DHT22;10211;49.476;11.010;2022-12-15T01:22:42;-2.90;99.90
16999;DHT22;10211;49.476;11.010;2022-12-15T01:25:12;-3.00;99.90
16999;DHT22;10211;49.476;11.010;2022-12-15T01:27:39;-3.00;99.90
16999;DHT22;10211;49.476;11.010;2022-12-15T01:30:09;-3.00;99.90
16999;DHT22;10211;49.476;11.010;2022-12-15T01:32:39;-3.10;99.90
16999;DHT22;10211;49.476;11.010;2022-12-15T01:35:07;-3.10;99.90
16999;DHT22;10211;49.476;11.010;2022-12-15T01:37:34;-3.10;99.90
16999;DHT22;10211;49.476;11.010;2022-12-15T01:40:01;-3.20;99.90
16999;DHT22;10211;49.476;11.010;2022-12-15T01:42:42;-3.20;99.90
16999;DHT22;10211;49.476;11.010;2022-12-15T01:45:46;-3.20;99.90
16999;DHT22;10211;49.476;11.010;2022-12-15T01:48:19;-3.20;99.90
16999;DHT22;10211;49.476;11.010;2022-12-15T01:50:54;-3.10;99.90
16999;DHT22;10211;49.476;11.010;2022-12-15T01:53:22;-3.10;99.90
16999;DHT22;10211;49.476;11.010;2022-12-15T01:55:49;-3.10;99.90
16999;DHT22;10211;49.476;11.010;2022-12-15T01:58:19;-3.10;99.90
16999;DHT22;10211;49.476;11.010;2022-12-15T02:00:47;-3.00;99.90
16999;DHT22;10211;49.476;11.010;2022-12-15T02:03:15;-3.00;99.90
16999;DHT22;10211;49.476;11.010;2022-12-15T02:05:44;-3.00;99.90
16999;DHT22;10211;49.476;11.010;2022-12-15T02:08:12;-3.10;99.90
16999;DHT22;10211;49.476;11.010;2022-12-15T02:10:55;-3.10;99.90
16999;DHT22;10211;49.476;11.010;2022-12-15T02:13:29;-3.10;99.90
16999;DHT22;10211;49.476;11.010;2022-12-15T02:16:05;-3.10;99.90
16999;DHT22;10211;49.476;11.010;2022-12-15T02:18:44;-3.10;99.90
16999;DHT22;10211;49.476;11.010;2022-12-15T02:21:17;-3.10;99.90
16999;DHT22;10211;49.476;11.010;2022-12-15T02:24:27;-3.10;99.90
16999;DHT22;10211;49.476;11.010;2022-12-15T02:30:23;-3.10;99.90
16999;DHT22;10211;49.476;11.010;2022-12-15T02:33:01;-3.10;99.90
16999;DHT22;10211;49.476;11.010;2022-12-15T02:35:34;-3.10;99.90
16999;DHT22;10211;49.476;11.010;2022-12-15T02:38:02;-3.10;99.90
16999;DHT22;10211;49.476;11.010;2022-12-15T02:40:29;-3.10;99.90
16999;DHT22;10211;49.476;11.010;2022-12-15T02:42:57;-3.10;99.90
16999;DHT22;10211;49.476;11.010;2022-12-15T02:45:31;-3.20;99.90
16999;DHT22;10211;49.476;11.010;2022-12-15T02:48:08;-3.10;99.90
16999;DHT22;10211;49.476;11.010;2022-12-15T02:50:50;-3.10;99.90
16999;DHT22;10211;49.476;11.010;2022-12-15T02:53:46;-3.20;99.90
16999;DHT22;10211;49.476;11.010;2022-12-15T02:56:23;-3.20;99.90
16999;DHT22;10211;49.476;11.010;2022-12-15T02:59:02;-3.20;99.90
16999;DHT22;10211;49.476;11.010;2022-12-15T03:01:35;-3.20;99.90
16999;DHT22;10211;49.476;11.010;2022-12-15T03:04:05;-3.20;99.90
16999;DHT22;10211;49.476;11.010;2022-12-15T03:06:32;-3.20;99.90
16999;DHT22;10211;49.476;11.010;2022-12-15T03:08:59;-3.20;99.90
16999;DHT22;10211;49.476;11.010;2022-12-15T03:11:26;-3.10;99.90
16999;DHT22;10211;49.476;11.010;2022-12-15T03:13:53;-3.10;99.90
16999;DHT22;10211;49.476;11.010;2022-12-15T03:16:20;-3.10;99.90
16999;DHT22;10211;49.476;11.010;2022-12-15T03:18:48;-3.10;99.90
16999;DHT22;10211;49.476;11.010;2022-12-15T03:21:15;-3.10;99.90
16999;DHT22;10211;49.476;11.010;2022-12-15T03:23:42;-3.10;99.90
16999;DHT22;10211;49.476;11.010;2022-12-15T03:26:08;-3.10;99.90
16999;DHT22;10211;49.476;11.010;2022-12-15T03:28:36;-3.10;99.90
16999;DHT22;10211;49.476;11.010;2022-12-15T03:31:05;-3.10;99.90
16999;DHT22;10211;49.476;11.010;2022-12-15T03:33:32;-3.10;99.90
16999;DHT22;10211;49.476;11.010;2022-12-15T03:36:01;-3.10;99.90
16999;DHT22;10211;49.476;11.010;2022-12-15T03:38:29;-3.10;99.90
16999;DHT22;10211;49.476;11.010;2022-12-15T03:40:55;-3.10;99.90
16999;DHT22;10211;49.476;11.010;2022-12-15T03:43:22;-3.10;99.90
16999;DHT22;10211;49.476;11.010;2022-12-15T03:45:49;-3.00;99.90
16999;DHT22;10211;49.476;11.010;2022-12-15T03:48:17;-3.10;99.90
16999;DHT22;10211;49.476;11.010;2022-12-15T03:50:44;-3.10;99.90
16999;DHT22;10211;49.476;11.010;2022-12-15T03:53:12;-3.10;99.90
16999;DHT22;10211;49.476;11.010;2022-12-15T03:55:39;-3.10;99.90
16999;DHT22;10211;49.476;11.010;2022-12-15T03:58:05;-3.10;99.90
16999;DHT22;10211;49.476;11.010;2022-12-15T04:00:32;-3.10;99.90
16999;DHT22;10211;49.476;11.010;2022-12-15T04:02:59;-3.20;99.90
16999;DHT22;10211;49.476;11.010;2022-12-15T04:05:28;-3.20;99.90
16999;DHT22;10211;49.476;11.010;2022-12-15T04:07:56;-3.20;99.90
16999;DHT22;10211;49.476;11.010;2022-12-15T04:10:26;-3.20;99.90
16999;DHT22;10211;49.476;11.010;2022-12-15T04:12:56;-3.30;99.90
16999;DHT22;10211;49.476;11.010;2022-12-15T04:15:22;-3.30;99.90
16999;DHT22;10211;49.476;11.010;2022-12-15T04:17:49;-3.30;99.90
16999;DHT22;10211;49.476;11.010;2022-12-15T04:20:16;-3.30;99.90
16999;DHT22;10211;49.476;11.010;2022-12-15T04:22:45;-3.30;99.90
16999;DHT22;10211;49.476;11.010;2022-12-15T04:25:14;-3.30;99.90
16999;DHT22;10211;49.476;11.010;2022-12-15T04:28:01;-3.30;99.90
16999;DHT22;10211;49.476;11.010;2022-12-15T04:30:50;-3.30;99.90
16999;DHT22;10211;49.476;11.010;2022-12-15T04:33:35;-3.30;99.90
16999;DHT22;10211;49.476;11.010;2022-12-15T04:36:20;-3.30;99.90
16999;DHT22;10211;49.476;11.010;2022-12-15T04:39:05;-3.30;99.90
16999;DHT22;10211;49.476;11.010;2022-12-15T04:41:49;-3.30;99.90
16999;DHT22;10211;49.476;11.010;2022-12-15T04:44:35;-3.30;99.90
16999;DHT22;10211;49.476;11.010;2022-12-15T04:47:20;-3.30;99.90
16999;DHT22;10211;49.476;11.010;2022-12-15T04:50:05;-3.30;99.90
16999;DHT22;10211;49.476;11.010;2022-12-15T04:52:50;-3.30;99.90
16999;DHT22;10211;49.476;11.010;2022-12-15T04:55:36;-3.30;99.90
16999;DHT22;10211;49.476;11.010;2022-12-15T04:58:20;-3.30;99.90
16999;DHT22;10211;49.476;11.010;2022-12-15T05:01:05;-3.30;99.90
16999;DHT22;10211;49.476;11.010;2022-12-15T05:03:50;-3.30;99.90
16999;DHT22;10211;49.476;11.010;2022-12-15T05:06:34;-3.30;99.90
16999;DHT22;10211;49.476;11.010;2022-12-15T05:09:18;-3.30;99.90
16999;DHT22;10211;49.476;11.010;2022-12-15T05:12:03;-3.30;99.90
16999;DHT22;10211;49.476;11.010;2022-12-15T05:14:48;-3.30;99.90
16999;DHT22;10211;49.476;11.010;2022-12-15T05:17:33;-3.30;99.90
16999;DHT22;10211;49.476;11.010;2022-12-15T05:20:17;-3.30;99.90
16999;DHT22;10211;49.476;11.010;2022-12-15T05:23:01;-3.40;99.90
16999;DHT22;10211;49.476;11.010;2022-12-15T05:25:45;-3.40;99.90
16999;DHT22;10211;49.476;11.010;2022-12-15T05:28:29;-3.40;99.90
16999;DHT22;10211;49.476;11.010;2022-12-15T05:31:14;-3.40;99.90
16999;DHT22;10211;49.476;11.010;2022-12-15T05:33:59;-3.40;99.90
16999;DHT22;10211;49.476;11.010;2022-12-15T05:36:26;-3.40;99.90
16999;DHT22;10211;49.476;11.010;2022-12-15T05:38:53;-3.40;99.90
16999;DHT22;10211;49.476;11.010;2022-12-15T05:41:20;-3.40;99.90
16999;DHT22;10211;49.476;11.010;2022-12-15T05:43:47;-3.40;99.90
16999;DHT22;10211;49.476;11.010;2022-12-15T05:46:14;-3.40;99.90
16999;DHT22;10211;49.476;11.010;2022-12-15T05:48:41;-3.40;99.90
16999;DHT22;10211;49.476;11.010;2022-12-15T05:51:11;-3.10;99.90
16999;DHT22;10211;49.476;11.010;2022-12-15T05:53:39;-3.40;99.90
16999;DHT22;10211;49.476;11.010;2022-12-15T05:56:08;-3.40;99.90
16999;DHT22;10211;49.476;11.010;2022-12-15T05:58:36;-3.40;99.90
16999;DHT22;10211;49.476;11.010;2022-12-15T06:01:04;-3.40;99.90
16999;DHT22;10211;49.476;11.010;2022-12-15T06:03:32;-3.40;99.90
16999;DHT22;10211;49.476;11.010;2022-12-15T06:05:58;-3.30;99.90
16999;DHT22;10211;49.476;11.010;2022-12-15T06:08:28;-3.30;99.90
16999;DHT22;10211;49.476;11.010;2022-12-15T06:10:55;-3.30;99.90
16999;DHT22;10211;49.476;11.010;2022-12-15T06:13:23;-3.30;99.90
16999;DHT22;10211;49.476;11.010;2022-12-15T06:15:54;-3.30;99.90
16999;DHT22;10211;49.476;11.010;2022-12-15T06:18:22;-3.30;99.90
16999;DHT22;10211;49.476;11.010;2022-12-15T06:20:48;-3.30;99.90
16999;DHT22;10211;49.476;11.010;2022-12-15T06:23:16;-3.30;99.90
16999;DHT22;10211;49.476;11.010;2022-12-15T06:25:44;-3.30;99.90
16999;DHT22;10211;49.476;11.010;2022-12-15T06:28:11;-3.30;99.90
16999;DHT22;10211;49.476;11.010;2022-12-15T06:30:39;-3.30;99.90
16999;DHT22;10211;49.476;11.010;2022-12-15T06:33:06;-3.20;99.90
16999;DHT22;10211;49.476;11.010;2022-12-15T06:35:34;-3.20;99.90
16999;DHT22;10211;49.476;11.010;2022-12-15T06:38:02;-3.30;99.90
16999;DHT22;10211;49.476;11.010;2022-12-15T06:40:29;-3.30;99.90
16999;DHT22;10211;49.476;11.010;2022-12-15T06:42:57;-3.30;99.90
16999;DHT22;10211;49.476;11.010;2022-12-15T06:45:25;-3.30;99.90
16999;DHT22;10211;49.476;11.010;2022-12-15T06:47:52;-3.40;99.90
16999;DHT22;10211;49.476;11.010;2022-12-15T06:50:19;-3.40;99.90
16999;DHT22;10211;49.476;11.010;2022-12-15T06:52:46;-3.50;99.90
16999;DHT22;10211;49.476;11.010;2022-12-15T06:55:13;-3.60;99.90
16999;DHT22;10211;49.476;11.010;2022-12-15T06:57:39;-3.60;99.90
16999;DHT22;10211;49.476;11.010;2022-12-15T07:00:11;-3.70;99.90
16999;DHT22;10211;49.476;11.010;2022-12-15T07:02:40;-3.70;99.90
16999;DHT22;10211;49.476;11.010;2022-12-15T07:05:07;-3.70;99.90
16999;DHT22;10211;49.476;11.010;2022-12-15T07:07:35;-3.70;99.90
16999;DHT22;10211;49.476;11.010;2022-12-15T07:10:03;-3.60;99.90
16999;DHT22;10211;49.476;11.010;2022-12-15T07:12:30;-3.60;99.90
16999;DHT22;10211;49.476;11.010;2022-12-15T07:14:56;-3.60;99.90
16999;DHT22;10211;49.476;11.010;2022-12-15T07:17:25;-3.60;99.90
16999;DHT22;10211;49.476;11.010;2022-12-15T07:19:52;-3.60;99.90
16999;DHT22;10211;49.476;11.010;2022-12-15T07:22:19;-3.60;99.90
16999;DHT22;10211;49.476;11.010;2022-12-15T07:24:46;-3.60;99.90
16999;DHT22;10211;49.476;11.010;2022-12-15T07:27:13;-3.60;99.90
16999;DHT22;10211;49.476;11.010;2022-12-15T07:29:40;-3.60;99.90
16999;DHT22;10211;49.476;11.010;2022-12-15T07:32:06;-3.60;99.90
16999;DHT22;10211;49.476;11.010;2022-12-15T07:34:35;-3.70;99.90
16999;DHT22;10211;49.476;11.010;2022-12-15T07:37:02;-3.60;99.90
16999;DHT22;10211;49.476;11.010;2022-12-15T07:39:29;-3.60;99.90
16999;DHT22;10211;49.476;11.010;2022-12-15T07:41:57;-3.70;99.90
16999;DHT22;10211;49.476;11.010;2022-12-15T07:44:24;-3.70;99.90
16999;DHT22;10211;49.476;11.010;2022-12-15T07:46:51;-3.70;99.90
16999;DHT22;10211;49.476;11.010;2022-12-15T07:49:18;-3.70;99.90
16999;DHT22;10211;49.476;11.010;2022-12-15T07:51:47;-3.70;99.90
16999;DHT22;10211;49.476;11.010;2022-12-15T07:54:14;-3.70;99.90
16999;DHT22;10211;49.476;11.010;2022-12-15T07:56:41;-3.60;99.90
16999;DHT22;10211;49.476;11.010;2022-12-15T07:59:08;-3.60;99.90
16999;DHT22;10211;49.476;11.010;2022-12-15T08:01:35;-3.70;99.90
16999;DHT22;10211;49.476;11.010;2022-12-15T08:04:02;-3.70;99.90
16999;DHT22;10211;49.476;11.010;2022-12-15T08:06:29;-3.70;99.90
16999;DHT22;10211;49.476;11.010;2022-12-15T08:08:57;-3.70;99.90
16999;DHT22;10211;49.476;11.010;2022-12-15T08:11:24;-3.70;99.90
16999;DHT22;10211;49.476;11.010;2022-12-15T08:13:51;-3.70;99.90
16999;DHT22;10211;49.476;11.010;2022-12-15T08:16:18;-3.80;99.90
16999;DHT22;10211;49.476;11.010;2022-12-15T08:18:45;-3.80;99.90
16999;DHT22;10211;49.476;11.010;2022-12-15T08:21:13;-3.80;99.90
16999;DHT22;10211;49.476;11.010;2022-12-15T08:23:39;-3.80;99.90
16999;DHT22;10211;49.476;11.010;2022-12-15T08:26:10;-3.80;99.90
16999;DHT22;10211;49.476;11.010;2022-12-15T08:28:37;-3.80;99.90
16999;DHT22;10211;49.476;11.010;2022-12-15T08:31:06;-3.70;99.90
16999;DHT22;10211;49.476;11.010;2022-12-15T08:33:34;-3.70;99.90
16999;DHT22;10211;49.476;11.010;2022-12-15T08:36:02;-3.50;99.90
16999;DHT22;10211;49.476;11.010;2022-12-15T08:38:30;-3.30;99.90
16999;DHT22;10211;49.476;11.010;2022-12-15T08:40:57;-3.10;99.90
16999;DHT22;10211;49.476;11.010;2022-12-15T08:43:25;-2.90;99.90
16999;DHT22;10211;49.476;11.010;2022-12-15T08:45:52;-2.70;99.90
16999;DHT22;10211;49.476;11.010;2022-12-15T08:48:19;-2.60;99.90
16999;DHT22;10211;49.476;11.010;2022-12-15T08:50:46;-2.60;99.90
16999;DHT22;10211;49.476;11.010;2022-12-15T08:53:12;-2.50;99.90
16999;DHT22;10211;49.476;11.010;2022-12-15T08:55:39;-2.50;99.90
16999;DHT22;10211;49.476;11.010;2022-12-15T08:58:06;-2.50;99.90
16999;DHT22;10211;49.476;11.010;2022-12-15T09:00:35;-2.50;99.90
16999;DHT22;10211;49.476;11.010;2022-12-15T09:03:02;-2.60;99.90
16999;DHT22;10211;49.476;11.010;2022-12-15T09:05:29;-2.70;99.90
16999;DHT22;10211;49.476;11.010;2022-12-15T09:07:56;-2.90;99.90
16999;DHT22;10211;49.476;11.010;2022-12-15T09:10:23;-3.00;99.90
16999;DHT22;10211;49.476;11.010;2022-12-15T09:12:50;-3.10;99.90
16999;DHT22;10211;49.476;11.010;2022-12-15T09:15:17;-3.10;99.90
16999;DHT22;10211;49.476;11.010;2022-12-15T09:17:46;-3.20;99.90
16999;DHT22;10211;49.476;11.010;2022-12-15T09:20:13;-3.10;99.90
16999;DHT22;10211;49.476;11.010;2022-12-15T09:22:41;-3.00;99.90
16999;DHT22;10211;49.476;11.010;2022-12-15T09:25:08;-2.90;99.90
16999;DHT22;10211;49.476;11.010;2022-12-15T09:27:35;-2.80;99.90
16999;DHT22;10211;49.476;11.010;2022-12-15T09:30:02;-2.70;99.90
16999;DHT22;10211;49.476;11.010;2022-12-15T09:32:29;-2.60;99.90
16999;DHT22;10211;49.476;11.010;2022-12-15T09:34:57;-2.50;99.90
16999;DHT22;10211;49.476;11.010;2022-12-15T09:37:24;-2.40;99.90
16999;DHT22;10211;49.476;11.010;2022-12-15T09:39:51;-2.30;99.90
16999;DHT22;10211;49.476;11.010;2022-12-15T09:42:23;-2.10;99.90
16999;DHT22;10211;49.476;11.010;2022-12-15T09:44:56;-1.90;99.90
16999;DHT22;10211;49.476;11.010;2022-12-15T09:47:31;-1.70;99.90
16999;DHT22;10211;49.476;11.010;2022-12-15T09:50:03;-1.50;99.90
16999;DHT22;10211;49.476;11.010;2022-12-15T09:52:36;-1.20;99.90
16999;DHT22;10211;49.476;11.010;2022-12-15T09:55:16;-1.20;99.90
16999;DHT22;10211;49.476;11.010;2022-12-15T09:57:49;-1.10;99.90
16999;DHT22;10211;49.476;11.010;2022-12-15T10:00:19;-1.20;99.90
16999;DHT22;10211;49.476;11.010;2022-12-15T10:03:01;-1.30;99.90
16999;DHT22;10211;49.476;11.010;2022-12-15T10:05:37;-1.50;99.90
16999;DHT22;10211;49.476;11.010;2022-12-15T10:08:08;-1.80;99.90
16999;DHT22;10211;49.476;11.010;2022-12-15T10:10:42;-2.00;99.90
16999;DHT22;10211;49.476;11.010;2022-12-15T10:13:16;-2.20;99.90
16999;DHT22;10211;49.476;11.010;2022-12-15T10:15:46;-2.30;99.90
16999;DHT22;10211;49.476;11.010;2022-12-15T10:18:19;-2.30;99.90
16999;DHT22;10211;49.476;11.010;2022-12-15T10:20:51;-2.40;99.90
16999;DHT22;10211;49.476;11.010;2022-12-15T10:23:18;-2.50;99.90
16999;DHT22;10211;49.476;11.010;2022-12-15T10:25:47;-2.70;99.90
16999;DHT22;10211;49.476;11.010;2022-12-15T10:28:27;-2.80;99.90
16999;DHT22;10211;49.476;11.010;2022-12-15T10:30:59;-2.90;99.90
16999;DHT22;10211;49.476;11.010;2022-12-15T10:33:33;-3.00;99.90
16999;DHT22;10211;49.476;11.010;2022-12-15T10:36:03;-3.10;99.90
16999;DHT22;10211;49.476;11.010;2022-12-15T10:38:33;-3.10;99.90
16999;DHT22;10211;49.476;11.010;2022-12-15T10:41:03;-3.20;99.90
16999;DHT22;10211;49.476;11.010;2022-12-15T10:43:32;-3.20;99.90
16999;DHT22;10211;49.476;11.010;2022-12-15T10:46:06;-3.10;99.90
16999;DHT22;10211;49.476;11.010;2022-12-15T10:48:36;-3.00;99.90
16999;DHT22;10211;49.476;11.010;2022-12-15T10:51:24;-2.90;99.90
16999;DHT22;10211;49.476;11.010;2022-12-15T10:53:52;-2.90;99.90
16999;DHT22;10211;49.476;11.010;2022-12-15T10:56:22;-2.80;99.90
16999;DHT22;10211;49.476;11.010;2022-12-15T10:58:51;-2.70;99.90
16999;DHT22;10211;49.476;11.010;2022-12-15T11:01:20;-2.60;99.90
16999;DHT22;10211;49.476;11.010;2022-12-15T11:03:49;-2.50;99.90
16999;DHT22;10211;49.476;11.010;2022-12-15T11:06:19;-2.40;99.90
16999;DHT22;10211;49.476;11.010;2022-12-15T11:08:50;-2.20;99.90
16999;DHT22;10211;49.476;11.010;2022-12-15T11:11:29;-2.10;99.90
16999;DHT22;10211;49.476;11.010;2022-12-15T11:14:16;-2.10;99.90
16999;DHT22;10211;49.476;11.010;2022-12-15T11:16:52;-2.10;99.90
16999;DHT22;10211;49.476;11.010;2022-12-15T11:19:34;-2.10;99.90
16999;DHT22;10211;49.476;11.010;2022-12-15T11:22:11;-2.20;99.90
16999;DHT22;10211;49.476;11.010;2022-12-15T11:24:43;-2.10;99.90
16999;DHT22;10211;49.476;11.010;2022-12-15T11:27:14;-1.90;99.90
16999;DHT22;10211;49.476;11.010;2022-12-15T11:29:55;-1.60;99.90
16999;DHT22;10211;49.476;11.010;2022-12-15T11:32:24;-1.20;99.90
16999;DHT22;10211;49.476;11.010;2022-12-15T11:34:52;-0.60;99.90
16999;DHT22;10211;49.476;11.010;2022-12-15T11:37:41;-0.20;99.90
16999;DHT22;10211;49.476;11.010;2022-12-15T11:40:19;0.10;99.90
16999;DHT22;10211;49.476;11.010;2022-12-15T11:45:45;0.70;99.90
16999;DHT22;10211;49.476;11.010;2022-12-15T11:48:17;0.90;99.90
16999;DHT22;10211;49.476;11.010;2022-12-15T11:50:51;1.10;99.90
16999;DHT22;10211;49.476;11.010;2022-12-15T11:53:37;1.30;99.90
16999;DHT22;10211;49.476;11.010;2022-12-15T11:56:15;1.30;99.90
16999;DHT22;10211;49.476;11.010;2022-12-15T11:59:01;1.40;99.90
16999;DHT22;10211;49.476;11.010;2022-12-15T12:01:55;1.50;99.90
16999;DHT22;10211;49.476;11.010;2022-12-15T12:04:27;1.50;99.90
16999;DHT22;10211;49.476;11.010;2022-12-15T12:07:06;1.60;99.90
16999;DHT22;10211;49.476;11.010;2022-12-15T12:09:35;1.60;99.90
16999;DHT22;10211;49.476;11.010;2022-12-15T12:12:19;1.50;99.90
16999;DHT22;10211;49.476;11.010;2022-12-15T12:14:56;1.50;99.90
16999;DHT22;10211;49.476;11.010;2022-12-15T12:17:35;1.30;99.90
16999;DHT22;10211;49.476;11.010;2022-12-15T12:20:13;1.00;99.90
16999;DHT22;10211;49.476;11.010;2022-12-15T12:22:48;0.80;99.90
16999;DHT22;10211;49.476;11.010;2022-12-15T12:25:20;0.50;99.90
16999;DHT22;10211;49.476;11.010;2022-12-15T12:27:54;0.40;99.90
16999;DHT22;10211;49.476;11.010;2022-12-15T12:30:23;0.30;99.90
16999;DHT22;10211;49.476;11.010;2022-12-15T12:32:54;0.30;99.90
16999;DHT22;10211;49.476;11.010;2022-12-15T12:35:29;0.30;99.90
16999;DHT22;10211;49.476;11.010;2022-12-15T12:37:58;0.20;99.90
16999;DHT22;10211;49.476;11.010;2022-12-15T12:40:29;0.20;99.90
16999;DHT22;10211;49.476;11.010;2022-12-15T12:43:01;0.30;99.90
16999;DHT22;10211;49.476;11.010;2022-12-15T12:45:31;0.20;99.90
16999;DHT22;10211;49.476;11.010;2022-12-15T12:48:05;0.20;99.90
16999;DHT22;10211;49.476;11.010;2022-12-15T12:50:32;0.10;99.90
16999;DHT22;10211;49.476;11.010;2022-12-15T12:53:01;0.10;99.90
16999;DHT22;10211;49.476;11.010;2022-12-15T12:55:35;-0.10;99.90
16999;DHT22;10211;49.476;11.010;2022-12-15T12:58:30;-0.10;99.90
16999;DHT22;10211;49.476;11.010;2022-12-15T13:01:16;-0.10;99.90
16999;DHT22;10211;49.476;11.010;2022-12-15T13:03:44;-0.10;99.90
16999;DHT22;10211;49.476;11.010;2022-12-15T13:06:20;-0.10;99.90
16999;DHT22;10211;49.476;11.010;2022-12-15T13:08:49;-0.20;99.90
16999;DHT22;10211;49.476;11.010;2022-12-15T13:11:53;-0.20;99.90
16999;DHT22;10211;49.476;11.010;2022-12-15T13:14:44;-0.20;99.90
16999;DHT22;10211;49.476;11.010;2022-12-15T13:17:18;-0.30;99.90
16999;DHT22;10211;49.476;11.010;2022-12-15T13:20:20;-0.40;99.90
16999;DHT22;10211;49.476;11.010;2022-12-15T13:22:47;-0.40;99.90
16999;DHT22;10211;49.476;11.010;2022-12-15T13:25:40;-0.40;99.90
16999;DHT22;10211;49.476;11.010;2022-12-15T13:28:27;-0.40;99.90
16999;DHT22;10211;49.476;11.010;2022-12-15T13:31:32;-0.40;99.90
16999;DHT22;10211;49.476;11.010;2022-12-15T13:34:13;-0.40;99.90
16999;DHT22;10211;49.476;11.010;2022-12-15T13:36:58;-0.50;99.90
16999;DHT22;10211;49.476;11.010;2022-12-15T13:39:51;-0.50;99.90
16999;DHT22;10211;49.476;11.010;2022-12-15T13:42:34;-0.40;99.90
16999;DHT22;10211;49.476;11.010;2022-12-15T13:48:30;-0.30;99.90
16999;DHT22;10211;49.476;11.010;2022-12-15T13:51:03;-0.20;99.90
16999;DHT22;10211;49.476;11.010;2022-12-15T13:53:37;-0.20;99.90
16999;DHT22;10211;49.476;11.010;2022-12-15T13:56:18;-0.10;99.90
16999;DHT22;10211;49.476;11.010;2022-12-15T13:58:51;-0.10;99.90
16999;DHT22;10211;49.476;11.010;2022-12-15T14:01:21;-0.10;99.90
16999;DHT22;10211;49.476;11.010;2022-12-15T14:04:05;0.00;99.90
16999;DHT22;10211;49.476;11.010;2022-12-15T14:06:39;0.00;99.90
16999;DHT22;10211;49.476;11.010;2022-12-15T14:09:10;-0.10;99.90
16999;DHT22;10211;49.476;11.010;2022-12-15T14:11:40;-0.20;99.90
16999;DHT22;10211;49.476;11.010;2022-12-15T14:14:15;-0.30;99.90
16999;DHT22;10211;49.476;11.010;2022-12-15T14:16:43;-0.30;99.90
16999;DHT22;10211;49.476;11.010;2022-12-15T14:19:14;-0.40;99.90
16999;DHT22;10211;49.476;11.010;2022-12-15T14:21:48;-0.60;99.90
16999;DHT22;10211;49.476;11.010;2022-12-15T14:24:24;-0.60;99.90
16999;DHT22;10211;49.476;11.010;2022-12-15T14:26:51;-0.80;99.90
16999;DHT22;10211;49.476;11.010;2022-12-15T14:29:18;-0.80;99.90
16999;DHT22;10211;49.476;11.010;2022-12-15T14:31:48;-1.00;99.90
16999;DHT22;10211;49.476;11.010;2022-12-15T14:34:26;-1.10;99.90
16999;DHT22;10211;49.476;11.010;2022-12-15T14:36:56;-1.20;99.90
16999;DHT22;10211;49.476;11.010;2022-12-15T14:39:27;-1.20;99.90
16999;DHT22;10211;49.476;11.010;2022-12-15T14:41:56;-1.30;99.90
16999;DHT22;10211;49.476;11.010;2022-12-15T14:44:32;-1.40;99.90
16999;DHT22;10211;49.476;11.010;2022-12-15T14:47:01;-1.50;99.90
16999;DHT22;10211;49.476;11.010;2022-12-15T14:49:32;-1.70;99.90
16999;DHT22;10211;49.476;11.010;2022-12-15T14:52:04;-1.70;99.90
16999;DHT22;10211;49.476;11.010;2022-12-15T14:54:33;-1.80;99.90
16999;DHT22;10211;49.476;11.010;2022-12-15T14:57:02;-1.90;99.90
16999;DHT22;10211;49.476;11.010;2022-12-15T14:59:39;-2.00;99.90
16999;DHT22;10211;49.476;11.010;2022-12-15T15:02:13;-2.00;99.90
16999;DHT22;10211;49.476;11.010;2022-12-15T15:04:41;-2.10;99.90
16999;DHT22;10211;49.476;11.010;2022-12-15T15:07:16;-2.10;99.90
16999;DHT22;10211;49.476;11.010;2022-12-15T15:09:44;-2.20;99.90
16999;DHT22;10211;49.476;11.010;2022-12-15T15:12:16;-2.30;99.90
16999;DHT22;10211;49.476;11.010;2022-12-15T15:14:45;-2.30;99.90
16999;DHT22;10211;49.476;11.010;2022-12-15T15:17:19;-2.40;99.90
16999;DHT22;10211;49.476;11.010;2022-12-15T15:19:50;-2.40;99.90
16999;DHT22;10211;49.476;11.010;2022-12-15T15:22:36;-2.40;99.90
16999;DHT22;10211;49.476;11.010;2022-12-15T15:25:24;-2.50;99.90
16999;DHT22;10211;49.476;11.010;2022-12-15T15:28:01;-2.20;99.90
16999;DHT22;10211;49.476;11.010;2022-12-15T15:30:28;-2.50;99.90
16999;DHT22;10211;49.476;11.010;2022-12-15T15:32:56;-2.50;99.90
16999;DHT22;10211;49.476;11.010;2022-12-15T15:35:29;-2.50;99.90
16999;DHT22;10211;49.476;11.010;2022-12-15T15:38:00;-2.50;99.90
16999;DHT22;10211;49.476;11.010;2022-12-15T15:40:29;-2.50;99.90
16999;DHT22;10211;49.476;11.010;2022-12-15T15:42:56;-2.50;99.90
16999;DHT22;10211;49.476;11.010;2022-12-15T15:45:22;-2.50;99.90
16999;DHT22;10211;49.476;11.010;2022-12-15T15:47:51;-2.40;99.90
16999;DHT22;10211;49.476;11.010;2022-12-15T15:50:24;-2.40;99.90
16999;DHT22;10211;49.476;11.010;2022-12-15T15:52:53;-2.40;99.90
16999;DHT22;10211;49.476;11.010;2022-12-15T15:55:24;-2.40;99.90
16999;DHT22;10211;49.476;11.010;2022-12-15T15:57:52;-2.30;99.90
16999;DHT22;10211;49.476;11.010;2022-12-15T16:00:20;-2.30;99.90
16999;DHT22;10211;49.476;11.010;2022-12-15T16:02:48;-2.20;99.90
16999;DHT22;10211;49.476;11.010;2022-12-15T16:05:15;-2.40;99.90